sensor_id;sensor_type;location;lat;lon;timestamp;temperature;humidity
46900;DHT22;32647;49.382;7.078;2022-11-20T00:00:36;6.80;99.90
46900;DHT22;32647;49.382;7.078;2022-11-20T00:03:22;6.90;99.90
46900;DHT22;32647;49.382;7.078;2022-11-20T00:06:11;6.90;99.90
46900;DHT22;32647;49.382;7.078;2022-11-20T00:08:59;6.90;99.90
46900;DHT22;32647;49.382;7.078;2022-11-20T00:11:45;6.80;99.90
46900;DHT22;32647;49.382;7.078;2022-11-20T00:14:31;6.80;99.90
46900;DHT22;32647;49.382;7.078;2022-11-20T00:17:17;6.80;99.90
46900;DHT22;32647;49.382;7.078;2022-11-20T00:20:03;6.80;99.90
46900;DHT22;32647;49.382;7.078;2022-11-20T00:22:50;6.80;99.90
46900;DHT22;32647;49.382;7.078;2022-11-20T00:25:36;6.80;99.90
46900;DHT22;32647;49.382;7.078;2022-11-20T00:28:22;6.80;99.90
46900;DHT22;32647;49.382;7.078;2022-11-20T00:31:13;6.80;99.90
46900;DHT22;32647;49.382;7.078;2022-11-20T00:34:00;6.80;99.90
46900;DHT22;32647;49.382;7.078;2022-11-20T00:36:46;6.80;99.90
46900;DHT22;32647;49.382;7.078;2022-11-20T00:39:32;6.80;99.90
46900;DHT22;32647;49.382;7.078;2022-11-20T00:42:18;6.80;99.90
46900;DHT22;32647;49.382;7.078;2022-11-20T00:45:04;6.80;99.90
46900;DHT22;32647;49.382;7.078;2022-11-20T00:47:50;6.80;99.90
46900;DHT22;32647;49.382;7.078;2022-11-20T00:50:36;6.90;99.90
46900;DHT22;32647;49.382;7.078;2022-11-20T00:53:22;6.90;99.90
46900;DHT22;32647;49.382;7.078;2022-11-20T00:56:13;6.80;99.90
46900;DHT22;32647;49.382;7.078;2022-11-20T00:59:00;6.90;99.90
46900;DHT22;32647;49.382;7.078;2022-11-20T01:01:48;6.80;99.90
46900;DHT22;32647;49.382;7.078;2022-11-20T01:04:34;6.80;99.90
46900;DHT22;32647;49.382;7.078;2022-11-20T01:07:20;6.80;99.90
46900;DHT22;32647;49.382;7.078;2022-11-20T01:10:06;6.80;99.90
46900;DHT22;32647;49.382;7.078;2022-11-20T01:12:53;6.90;99.90
46900;DHT22;32647;49.382;7.078;2022-11-20T01:16:04;6.80;99.90
46900;DHT22;32647;49.382;7.078;2022-11-20T01:18:52;6.80;99.90
46900;DHT22;32647;49.382;7.078;2022-11-20T01:21:39;6.80;99.90
46900;DHT22;32647;49.382;7.078;2022-11-20T01:24:25;6.80;99.90
46900;DHT22;32647;49.382;7.078;2022-11-20T01:27:11;6.80;99.90
46900;DHT22;32647;49.382;7.078;2022-11-20T01:29:57;6.90;99.90
46900;DHT22;32647;49.382;7.078;2022-11-20T01:32:43;6.80;99.90
46900;DHT22;32647;49.382;7.078;2022-11-20T01:35:29;6.80;99.90
46900;DHT22;32647;49.382;7.078;2022-11-20T01:38:16;6.80;99.90
46900;DHT22;32647;49.382;7.078;2022-11-20T01:41:02;6.80;99.90
46900;DHT22;32647;49.382;7.078;2022-11-20T01:43:48;6.80;99.90
46900;DHT22;32647;49.382;7.078;2022-11-20T01:46:37;6.80;99.90
46900;DHT22;32647;49.382;7.078;2022-11-20T01:49:37;6.80;99.90
46900;DHT22;32647;49.382;7.078;2022-11-20T01:52:45;6.80;99.90
46900;DHT22;32647;49.382;7.078;2022-11-20T01:55:39;6.80;99.90
46900;DHT22;32647;49.382;7.078;2022-11-20T01:58:30;6.80;99.90
46900;DHT22;32647;49.382;7.078;2022-11-20T02:01:18;6.80;99.90
46900;DHT22;32647;49.382;7.078;2022-11-20T02:04:04;6.90;99.90
46900;DHT22;32647;49.382;7.078;2022-11-20T02:06:56;6.80;99.90
46900;DHT22;32647;49.382;7.078;2022-11-20T02:09:44;6.80;99.90
46900;DHT22;32647;49.382;7.078;2022-11-20T02:12:30;6.80;99.90
46900;DHT22;32647;49.382;7.078;2022-11-20T02:15:34;6.80;99.90
46900;DHT22;32647;49.382;7.078;2022-11-20T02:18:21;6.80;99.90
46900;DHT22;32647;49.382;7.078;2022-11-20T02:21:44;6.80;99.90
46900;DHT22;32647;49.382;7.078;2022-11-20T02:24:32;6.80;99.90
46900;DHT22;32647;49.382;7.078;2022-11-20T02:27:18;6.80;99.90
46900;DHT22;32647;49.382;7.078;2022-11-20T02:30:06;6.80;99.90
46900;DHT22;32647;49.382;7.078;2022-11-20T02:32:57;6.80;99.90
46900;DHT22;32647;49.382;7.078;2022-11-20T02:35:45;6.80;99.90
46900;DHT22;32647;49.382;7.078;2022-11-20T02:38:31;6.80;99.90
46900;DHT22;32647;49.382;7.078;2022-11-20T02:41:17;6.80;99.90
46900;DHT22;32647;49.382;7.078;2022-11-20T02:44:04;6.80;99.90
46900;DHT22;32647;49.382;7.078;2022-11-20T02:46:51;6.80;99.90
46900;DHT22;32647;49.382;7.078;2022-11-20T02:49:37;6.80;99.90
46900;DHT22;32647;49.382;7.078;2022-11-20T02:52:23;6.80;99.90
46900;DHT22;32647;49.382;7.078;2022-11-20T02:55:09;6.80;99.90
46900;DHT22;32647;49.382;7.078;2022-11-20T02:57:56;6.80;99.90
46900;DHT22;32647;49.382;7.078;2022-11-20T03:00:42;6.80;99.90
46900;DHT22;32647;49.382;7.078;2022-11-20T03:03:27;6.80;99.90
46900;DHT22;32647;49.382;7.078;2022-11-20T03:06:14;6.80;99.90
46900;DHT22;32647;49.382;7.078;2022-11-20T03:09:00;6.80;99.90
46900;DHT22;32647;49.382;7.078;2022-11-20T03:11:46;6.80;99.90
46900;DHT22;32647;49.382;7.078;2022-11-20T03:14:32;6.80;99.90
46900;DHT22;32647;49.382;7.078;2022-11-20T03:17:18;6.80;99.90
46900;DHT22;32647;49.382;7.078;2022-11-20T03:20:04;6.80;99.90
46900;DHT22;32647;49.382;7.078;2022-11-20T03:22:53;6.80;99.90
46900;DHT22;32647;49.382;7.078;2022-11-20T03:25:39;6.80;99.90
46900;DHT22;32647;49.382;7.078;2022-11-20T03:28:25;6.80;99.90
46900;DHT22;32647;49.382;7.078;2022-11-20T03:31:13;6.80;99.90
46900;DHT22;32647;49.382;7.078;2022-11-20T03:34:00;6.80;99.90
46900;DHT22;32647;49.382;7.078;2022-11-20T03:36:46;6.80;99.90
46900;DHT22;32647;49.382;7.078;2022-11-20T03:39:32;6.80;99.90
46900;DHT22;32647;49.382;7.078;2022-11-20T03:42:18;6.80;99.90
46900;DHT22;32647;49.382;7.078;2022-11-20T03:45:42;6.80;99.90
46900;DHT22;32647;49.382;7.078;2022-11-20T03:48:28;6.80;99.90
46900;DHT22;32647;49.382;7.078;2022-11-20T03:51:18;6.80;99.90
46900;DHT22;32647;49.382;7.078;2022-11-20T03:54:06;6.70;99.90
46900;DHT22;32647;49.382;7.078;2022-11-20T03:56:53;6.70;99.90
46900;DHT22;32647;49.382;7.078;2022-11-20T03:59:38;6.70;99.90
46900;DHT22;32647;49.382;7.078;2022-11-20T04:02:24;6.70;99.90
46900;DHT22;32647;49.382;7.078;2022-11-20T04:05:10;6.70;99.90
46900;DHT22;32647;49.382;7.078;2022-11-20T04:07:57;6.70;99.90
46900;DHT22;32647;49.382;7.078;2022-11-20T04:10:43;6.70;99.90
46900;DHT22;32647;49.382;7.078;2022-11-20T04:13:29;6.70;99.90
46900;DHT22;32647;49.382;7.078;2022-11-20T04:16:16;6.70;99.90
46900;DHT22;32647;49.382;7.078;2022-11-20T04:19:05;6.70;99.90
46900;DHT22;32647;49.382;7.078;2022-11-20T04:21:51;6.70;99.90
46900;DHT22;32647;49.382;7.078;2022-11-20T04:24:37;6.70;99.90
46900;DHT22;32647;49.382;7.078;2022-11-20T04:27:23;6.70;99.90
46900;DHT22;32647;49.382;7.078;2022-11-20T04:30:10;6.70;99.90
46900;DHT22;32647;49.382;7.078;2022-11-20T04:32:56;6.70;99.90
46900;DHT22;32647;49.382;7.078;2022-11-20T04:35:42;6.70;99.90
46900;DHT22;32647;49.382;7.078;2022-11-20T04:38:29;6.70;99.90
46900;DHT22;32647;49.382;7.078;2022-11-20T04:41:17;6.70;99.90
46900;DHT22;32647;49.382;7.078;2022-11-20T04:44:04;6.70;99.90
46900;DHT22;32647;49.382;7.078;2022-11-20T04:46:51;6.70;99.90
46900;DHT22;32647;49.382;7.078;2022-11-20T04:49:36;6.70;99.90
46900;DHT22;32647;49.382;7.078;2022-11-20T04:52:22;6.80;99.90
46900;DHT22;32647;49.382;7.078;2022-11-20T04:55:08;6.70;99.90
46900;DHT22;32647;49.382;7.078;2022-11-20T04:57:54;6.80;99.90
46900;DHT22;32647;49.382;7.078;2022-11-20T05:00:40;6.80;99.90
46900;DHT22;32647;49.382;7.078;2022-11-20T05:03:26;6.80;99.90
46900;DHT22;32647;49.382;7.078;2022-11-20T05:06:14;6.80;99.90
46900;DHT22;32647;49.382;7.078;2022-11-20T05:09:00;6.80;99.90
46900;DHT22;32647;49.382;7.078;2022-11-20T05:11:47;6.80;99.90
46900;DHT22;32647;49.382;7.078;2022-11-20T05:14:33;6.80;99.90
46900;DHT22;32647;49.382;7.078;2022-11-20T05:17:19;6.70;99.90
46900;DHT22;32647;49.382;7.078;2022-11-20T05:20:06;6.70;99.90
46900;DHT22;32647;49.382;7.078;2022-11-20T05:22:52;6.70;99.90
46900;DHT22;32647;49.382;7.078;2022-11-20T05:25:38;6.80;99.90
46900;DHT22;32647;49.382;7.078;2022-11-20T05:28:24;6.70;99.90
46900;DHT22;32647;49.382;7.078;2022-11-20T05:31:13;6.80;99.90
46900;DHT22;32647;49.382;7.078;2022-11-20T05:33:59;6.80;99.90
46900;DHT22;32647;49.382;7.078;2022-11-20T05:36:45;6.80;99.90
46900;DHT22;32647;49.382;7.078;2022-11-20T05:39:31;6.80;99.90
46900;DHT22;32647;49.382;7.078;2022-11-20T05:42:17;6.90;99.90
46900;DHT22;32647;49.382;7.078;2022-11-20T05:45:18;6.90;99.90
46900;DHT22;32647;49.382;7.078;2022-11-20T05:48:04;6.80;99.90
46900;DHT22;32647;49.382;7.078;2022-11-20T05:50:50;6.80;99.90
46900;DHT22;32647;49.382;7.078;2022-11-20T05:53:37;6.80;99.90
46900;DHT22;32647;49.382;7.078;2022-11-20T05:56:23;6.80;99.90
46900;DHT22;32647;49.382;7.078;2022-11-20T05:59:09;6.80;99.90
46900;DHT22;32647;49.382;7.078;2022-11-20T06:01:55;6.80;99.90
46900;DHT22;32647;49.382;7.078;2022-11-20T06:04:40;6.80;99.90
46900;DHT22;32647;49.382;7.078;2022-11-20T06:07:26;6.90;99.90
46900;DHT22;32647;49.382;7.078;2022-11-20T06:10:12;6.90;99.90
46900;DHT22;32647;49.382;7.078;2022-11-20T06:12:58;6.80;99.90
46900;DHT22;32647;49.382;7.078;2022-11-20T06:15:51;6.90;99.90
46900;DHT22;32647;49.382;7.078;2022-11-20T06:18:37;6.90;99.90
46900;DHT22;32647;49.382;7.078;2022-11-20T06:21:24;6.90;99.90
46900;DHT22;32647;49.382;7.078;2022-11-20T06:24:10;6.90;99.90
46900;DHT22;32647;49.382;7.078;2022-11-20T06:26:56;6.90;99.90
46900;DHT22;32647;49.382;7.078;2022-11-20T06:29:42;6.90;99.90
46900;DHT22;32647;49.382;7.078;2022-11-20T06:32:28;7.00;99.90
46900;DHT22;32647;49.382;7.078;2022-11-20T06:35:14;6.90;99.90
46900;DHT22;32647;49.382;7.078;2022-11-20T06:38:00;6.90;99.90
46900;DHT22;32647;49.382;7.078;2022-11-20T06:40:46;7.00;99.90
46900;DHT22;32647;49.382;7.078;2022-11-20T06:43:32;7.00;99.90
46900;DHT22;32647;49.382;7.078;2022-11-20T06:46:19;7.00;99.90
46900;DHT22;32647;49.382;7.078;2022-11-20T06:49:05;6.90;99.90
46900;DHT22;32647;49.382;7.078;2022-11-20T06:51:51;6.90;99.90
46900;DHT22;32647;49.382;7.078;2022-11-20T06:54:37;7.00;99.90
46900;DHT22;32647;49.382;7.078;2022-11-20T06:57:23;7.00;99.90
46900;DHT22;32647;49.382;7.078;2022-11-20T07:00:09;7.00;99.90
46900;DHT22;32647;49.382;7.078;2022-11-20T07:02:55;7.00;99.90
46900;DHT22;32647;49.382;7.078;2022-11-20T07:05:41;6.90;99.90
46900;DHT22;32647;49.382;7.078;2022-11-20T07:08:28;6.90;99.90
46900;DHT22;32647;49.382;7.078;2022-11-20T07:11:14;7.00;99.90
46900;DHT22;32647;49.382;7.078;2022-11-20T07:14:00;7.00;99.90
46900;DHT22;32647;49.382;7.078;2022-11-20T07:16:46;7.00;99.90
46900;DHT22;32647;49.382;7.078;2022-11-20T07:19:32;7.00;99.90
46900;DHT22;32647;49.382;7.078;2022-11-20T07:22:18;7.00;99.90
46900;DHT22;32647;49.382;7.078;2022-11-20T07:25:07;7.00;99.90
46900;DHT22;32647;49.382;7.078;2022-11-20T07:28:00;7.00;99.90
46900;DHT22;32647;49.382;7.078;2022-11-20T07:30:53;7.00;99.90
46900;DHT22;32647;49.382;7.078;2022-11-20T07:33:39;7.10;99.90
46900;DHT22;32647;49.382;7.078;2022-11-20T07:36:25;7.10;99.90
46900;DHT22;32647;49.382;7.078;2022-11-20T07:39:11;7.10;99.90
46900;DHT22;32647;49.382;7.078;2022-11-20T07:41:57;7.10;99.90
46900;DHT22;32647;49.382;7.078;2022-11-20T07:44:42;7.10;99.90
46900;DHT22;32647;49.382;7.078;2022-11-20T07:47:28;7.10;99.90
46900;DHT22;32647;49.382;7.078;2022-11-20T07:50:20;7.10;99.90
46900;DHT22;32647;49.382;7.078;2022-11-20T07:53:06;7.10;99.90
46900;DHT22;32647;49.382;7.078;2022-11-20T07:55:52;7.10;99.90
46900;DHT22;32647;49.382;7.078;2022-11-20T07:58:38;7.10;99.90
46900;DHT22;32647;49.382;7.078;2022-11-20T08:01:24;7.10;99.90
46900;DHT22;32647;49.382;7.078;2022-11-20T08:04:10;7.10;99.90
46900;DHT22;32647;49.382;7.078;2022-11-20T08:06:56;7.10;99.90
46900;DHT22;32647;49.382;7.078;2022-11-20T08:09:41;7.10;99.90
46900;DHT22;32647;49.382;7.078;2022-11-20T08:12:27;7.00;99.90
46900;DHT22;32647;49.382;7.078;2022-11-20T08:15:32;7.00;99.90
46900;DHT22;32647;49.382;7.078;2022-11-20T08:18:18;7.00;99.90
46900;DHT22;32647;49.382;7.078;2022-11-20T08:21:05;7.00;99.90
46900;DHT22;32647;49.382;7.078;2022-11-20T08:23:51;7.00;99.90
46900;DHT22;32647;49.382;7.078;2022-11-20T08:26:38;7.00;99.90
46900;DHT22;32647;49.382;7.078;2022-11-20T08:29:25;6.90;99.90
46900;DHT22;32647;49.382;7.078;2022-11-20T08:32:11;7.00;99.90
46900;DHT22;32647;49.382;7.078;2022-11-20T08:34:57;7.00;99.90
46900;DHT22;32647;49.382;7.078;2022-11-20T08:37:46;7.00;99.90
46900;DHT22;32647;49.382;7.078;2022-11-20T08:40:33;7.00;99.90
46900;DHT22;32647;49.382;7.078;2022-11-20T08:43:19;7.00;99.90
46900;DHT22;32647;49.382;7.078;2022-11-20T08:46:05;6.90;99.90
46900;DHT22;32647;49.382;7.078;2022-11-20T08:48:51;6.90;99.90
46900;DHT22;32647;49.382;7.078;2022-11-20T08:51:38;6.90;99.90
46900;DHT22;32647;49.382;7.078;2022-11-20T08:54:24;6.90;99.90
46900;DHT22;32647;49.382;7.078;2022-11-20T08:57:10;6.90;99.90
46900;DHT22;32647;49.382;7.078;2022-11-20T08:59:56;6.90;99.90
46900;DHT22;32647;49.382;7.078;2022-11-20T09:02:42;7.00;99.90
46900;DHT22;32647;49.382;7.078;2022-11-20T09:05:28;7.00;99.90
46900;DHT22;32647;49.382;7.078;2022-11-20T09:08:14;7.00;99.90
46900;DHT22;32647;49.382;7.078;2022-11-20T09:11:00;6.90;99.90
46900;DHT22;32647;49.382;7.078;2022-11-20T09:13:46;7.00;99.90
46900;DHT22;32647;49.382;7.078;2022-11-20T09:16:32;7.00;99.90
46900;DHT22;32647;49.382;7.078;2022-11-20T09:19:18;7.10;99.90
46900;DHT22;32647;49.382;7.078;2022-11-20T09:22:04;7.00;99.90
46900;DHT22;32647;49.382;7.078;2022-11-20T09:24:50;7.10;99.90
46900;DHT22;32647;49.382;7.078;2022-11-20T09:27:36;7.20;99.90
46900;DHT22;32647;49.382;7.078;2022-11-20T09:30:22;7.30;99.90
46900;DHT22;32647;49.382;7.078;2022-11-20T09:33:08;7.30;99.90
46900;DHT22;32647;49.382;7.078;2022-11-20T09:35:54;7.50;99.90
46900;DHT22;32647;49.382;7.078;2022-11-20T09:38:40;7.70;99.90
46900;DHT22;32647;49.382;7.078;2022-11-20T09:41:33;7.70;99.90
46900;DHT22;32647;49.382;7.078;2022-11-20T09:51:21;7.60;99.90
46900;DHT22;32647;49.382;7.078;2022-11-20T09:54:30;7.70;99.90
46900;DHT22;32647;49.382;7.078;2022-11-20T09:57:36;7.90;99.90
46900;DHT22;32647;49.382;7.078;2022-11-20T10:00:22;8.10;99.90
46900;DHT22;32647;49.382;7.078;2022-11-20T10:03:16;8.20;99.90
46900;DHT22;32647;49.382;7.078;2022-11-20T10:06:05;7.90;99.90
46900;DHT22;32647;49.382;7.078;2022-11-20T10:09:02;7.80;99.90
46900;DHT22;32647;49.382;7.078;2022-11-20T10:12:06;7.90;99.90
46900;DHT22;32647;49.382;7.078;2022-11-20T10:30:22;7.90;99.90
46900;DHT22;32647;49.382;7.078;2022-11-20T10:33:15;7.70;99.90
46900;DHT22;32647;49.382;7.078;2022-11-20T10:36:21;7.60;99.90
46900;DHT22;32647;49.382;7.078;2022-11-20T10:39:22;7.60;99.90
46900;DHT22;32647;49.382;7.078;2022-11-20T10:42:17;7.60;99.90
46900;DHT22;32647;49.382;7.078;2022-11-20T10:48:23;7.50;99.90
46900;DHT22;32647;49.382;7.078;2022-11-20T10:52:12;7.50;99.90
46900;DHT22;32647;49.382;7.078;2022-11-20T10:54:54;7.50;99.90
46900;DHT22;32647;49.382;7.078;2022-11-20T11:00:34;7.40;99.90
46900;DHT22;32647;49.382;7.078;2022-11-20T11:03:29;7.40;99.90
46900;DHT22;32647;49.382;7.078;2022-11-20T11:06:29;7.60;99.90
46900;DHT22;32647;49.382;7.078;2022-11-20T11:09:34;7.60;99.90
46900;DHT22;32647;49.382;7.078;2022-11-20T11:12:24;7.70;99.90
46900;DHT22;32647;49.382;7.078;2022-11-20T11:15:14;7.80;99.90
46900;DHT22;32647;49.382;7.078;2022-11-20T11:18:01;8.00;99.90
46900;DHT22;32647;49.382;7.078;2022-11-20T11:20:50;8.10;99.90
46900;DHT22;32647;49.382;7.078;2022-11-20T11:23:41;8.20;99.90
46900;DHT22;32647;49.382;7.078;2022-11-20T11:26:27;8.10;99.90
46900;DHT22;32647;49.382;7.078;2022-11-20T11:29:17;8.00;99.90
46900;DHT22;32647;49.382;7.078;2022-11-20T11:35:02;7.70;99.90
46900;DHT22;32647;49.382;7.078;2022-11-20T11:37:48;7.90;99.90
46900;DHT22;32647;49.382;7.078;2022-11-20T11:40:37;8.10;99.90
46900;DHT22;32647;49.382;7.078;2022-11-20T11:43:27;8.30;99.90
46900;DHT22;32647;49.382;7.078;2022-11-20T11:46:35;8.40;99.90
46900;DHT22;32647;49.382;7.078;2022-11-20T11:49:22;8.20;99.90
46900;DHT22;32647;49.382;7.078;2022-11-20T11:52:11;7.90;99.90
46900;DHT22;32647;49.382;7.078;2022-11-20T11:55:02;7.80;99.90
46900;DHT22;32647;49.382;7.078;2022-11-20T11:57:52;7.80;99.90
46900;DHT22;32647;49.382;7.078;2022-11-20T12:00:45;7.90;99.90
46900;DHT22;32647;49.382;7.078;2022-11-20T12:03:38;8.10;99.90
46900;DHT22;32647;49.382;7.078;2022-11-20T12:06:25;8.00;99.90
46900;DHT22;32647;49.382;7.078;2022-11-20T12:09:14;8.00;99.90
46900;DHT22;32647;49.382;7.078;2022-11-20T12:12:10;8.00;99.90
46900;DHT22;32647;49.382;7.078;2022-11-20T12:14:58;8.20;99.90
46900;DHT22;32647;49.382;7.078;2022-11-20T12:17:44;8.30;99.90
46900;DHT22;32647;49.382;7.078;2022-11-20T12:20:36;8.30;99.90
46900;DHT22;32647;49.382;7.078;2022-11-20T12:27:25;8.30;99.90
46900;DHT22;32647;49.382;7.078;2022-11-20T12:30:17;8.20;99.90
46900;DHT22;32647;49.382;7.078;2022-11-20T12:39:34;8.20;99.90
46900;DHT22;32647;49.382;7.078;2022-11-20T12:42:43;8.20;99.90
46900;DHT22;32647;49.382;7.078;2022-11-20T12:46:08;8.20;99.90
46900;DHT22;32647;49.382;7.078;2022-11-20T12:52:57;8.40;99.90
46900;DHT22;32647;49.382;7.078;2022-11-20T13:01:53;8.20;99.90
46900;DHT22;32647;49.382;7.078;2022-11-20T13:07:46;7.90;99.90
46900;DHT22;32647;49.382;7.078;2022-11-20T13:10:43;7.90;99.90
46900;DHT22;32647;49.382;7.078;2022-11-20T13:16:32;7.80;99.90
46900;DHT22;32647;49.382;7.078;2022-11-20T13:19:19;7.80;99.90
46900;DHT22;32647;49.382;7.078;2022-11-20T13:22:08;7.90;99.90
46900;DHT22;32647;49.382;7.078;2022-11-20T13:25:00;8.00;99.90
46900;DHT22;32647;49.382;7.078;2022-11-20T13:27:47;8.00;99.90
46900;DHT22;32647;49.382;7.078;2022-11-20T13:30:35;7.90;99.90
46900;DHT22;32647;49.382;7.078;2022-11-20T13:36:26;8.00;99.90
46900;DHT22;32647;49.382;7.078;2022-11-20T13:39:27;8.00;99.90
46900;DHT22;32647;49.382;7.078;2022-11-20T13:45:11;8.00;99.90
46900;DHT22;32647;49.382;7.078;2022-11-20T13:48:16;8.00;99.90
46900;DHT22;32647;49.382;7.078;2022-11-20T14:00:03;7.90;99.90
46900;DHT22;32647;49.382;7.078;2022-11-20T14:03:20;8.00;99.90
46900;DHT22;32647;49.382;7.078;2022-11-20T14:06:29;8.00;99.90
46900;DHT22;32647;49.382;7.078;2022-11-20T14:09:30;8.00;99.90
46900;DHT22;32647;49.382;7.078;2022-11-20T14:12:18;8.00;99.90
46900;DHT22;32647;49.382;7.078;2022-11-20T14:15:05;8.00;99.90
46900;DHT22;32647;49.382;7.078;2022-11-20T14:17:51;8.00;99.90
46900;DHT22;32647;49.382;7.078;2022-11-20T14:20:38;7.90;99.90
46900;DHT22;32647;49.382;7.078;2022-11-20T14:23:27;7.80;99.90
46900;DHT22;32647;49.382;7.078;2022-11-20T14:26:18;7.80;99.90
46900;DHT22;32647;49.382;7.078;2022-11-20T14:29:10;7.80;99.90
46900;DHT22;32647;49.382;7.078;2022-11-20T14:31:57;7.70;99.90
46900;DHT22;32647;49.382;7.078;2022-11-20T14:34:45;7.70;99.90
46900;DHT22;32647;49.382;7.078;2022-11-20T14:37:33;7.70;99.90
46900;DHT22;32647;49.382;7.078;2022-11-20T14:40:27;7.70;99.90
46900;DHT22;32647;49.382;7.078;2022-11-20T14:46:08;7.70;99.90
46900;DHT22;32647;49.382;7.078;2022-11-20T14:48:57;7.70;99.90
46900;DHT22;32647;49.382;7.078;2022-11-20T14:51:45;7.70;99.90
46900;DHT22;32647;49.382;7.078;2022-11-20T14:54:32;7.70;99.90
46900;DHT22;32647;49.382;7.078;2022-11-20T15:02:59;7.60;99.90
46900;DHT22;32647;49.382;7.078;2022-11-20T15:05:49;7.50;99.90
46900;DHT22;32647;49.382;7.078;2022-11-20T15:08:36;7.50;99.90
46900;DHT22;32647;49.382;7.078;2022-11-20T15:11:28;7.40;99.90
46900;DHT22;32647;49.382;7.078;2022-11-20T15:14:15;7.40;99.90
46900;DHT22;32647;49.382;7.078;2022-11-20T15:17:01;7.40;99.90
46900;DHT22;32647;49.382;7.078;2022-11-20T15:19:47;7.40;99.90
46900;DHT22;32647;49.382;7.078;2022-11-20T15:22:32;7.30;99.90
46900;DHT22;32647;49.382;7.078;2022-11-20T15:25:19;7.40;99.90
46900;DHT22;32647;49.382;7.078;2022-11-20T15:28:19;7.30;99.90
46900;DHT22;32647;49.382;7.078;2022-11-20T15:31:05;7.30;99.90
46900;DHT22;32647;49.382;7.078;2022-11-20T15:33:51;7.20;99.90
46900;DHT22;32647;49.382;7.078;2022-11-20T15:36:38;7.30;99.90
46900;DHT22;32647;49.382;7.078;2022-11-20T15:39:24;7.20;99.90
46900;DHT22;32647;49.382;7.078;2022-11-20T15:42:10;7.20;99.90
46900;DHT22;32647;49.382;7.078;2022-11-20T15:45:02;7.20;99.90
46900;DHT22;32647;49.382;7.078;2022-11-20T15:47:48;7.20;99.90
46900;DHT22;32647;49.382;7.078;2022-11-20T15:50:37;7.00;99.90
46900;DHT22;32647;49.382;7.078;2022-11-20T15:53:24;7.00;99.90
46900;DHT22;32647;49.382;7.078;2022-11-20T15:56:13;6.90;99.90
46900;DHT22;32647;49.382;7.078;2022-11-20T15:59:00;6.80;99.90
46900;DHT22;32647;49.382;7.078;2022-11-20T16:01:45;6.80;99.90
46900;DHT22;32647;49.382;7.078;2022-11-20T16:04:31;6.80;99.90
46900;DHT22;32647;49.382;7.078;2022-11-20T16:07:17;6.80;99.90
46900;DHT22;32647;49.382;7.078;2022-11-20T16:10:04;6.70;99.90
46900;DHT22;32647;49.382;7.078;2022-11-20T16:12:50;6.60;99.90
46900;DHT22;32647;49.382;7.078;2022-11-20T16:15:58;6.50;99.90
46900;DHT22;32647;49.382;7.078;2022-11-20T16:18:44;6.40;99.90
46900;DHT22;32647;49.382;7.078;2022-11-20T16:21:30;6.40;99.90
46900;DHT22;32647;49.382;7.078;2022-11-20T16:24:16;6.40;99.90
46900;DHT22;32647;49.382;7.078;2022-11-20T16:27:02;6.40;99.90
46900;DHT22;32647;49.382;7.078;2022-11-20T16:29:48;6.30;99.90
46900;DHT22;32647;49.382;7.078;2022-11-20T16:32:34;6.30;99.90
46900;DHT22;32647;49.382;7.078;2022-11-20T16:35:20;6.20;99.90
46900;DHT22;32647;49.382;7.078;2022-11-20T16:38:06;6.20;99.90
46900;DHT22;32647;49.382;7.078;2022-11-20T16:40:52;6.10;99.90
46900;DHT22;32647;49.382;7.078;2022-11-20T16:43:52;6.10;99.90
46900;DHT22;32647;49.382;7.078;2022-11-20T16:46:38;6.00;99.90
46900;DHT22;32647;49.382;7.078;2022-11-20T16:49:25;6.00;99.90
46900;DHT22;32647;49.382;7.078;2022-11-20T16:52:11;6.10;99.90
46900;DHT22;32647;49.382;7.078;2022-11-20T16:54:57;6.00;99.90
46900;DHT22;32647;49.382;7.078;2022-11-20T16:57:43;5.90;99.90
46900;DHT22;32647;49.382;7.078;2022-11-20T17:00:29;5.90;99.90
46900;DHT22;32647;49.382;7.078;2022-11-20T17:03:15;5.80;99.90
46900;DHT22;32647;49.382;7.078;2022-11-20T17:06:12;5.80;99.90
46900;DHT22;32647;49.382;7.078;2022-11-20T17:08:59;5.80;99.90
46900;DHT22;32647;49.382;7.078;2022-11-20T17:11:45;5.70;99.90
46900;DHT22;32647;49.382;7.078;2022-11-20T17:14:30;5.70;99.90
46900;DHT22;32647;49.382;7.078;2022-11-20T17:17:16;5.70;99.90
46900;DHT22;32647;49.382;7.078;2022-11-20T17:20:02;5.60;99.90
46900;DHT22;32647;49.382;7.078;2022-11-20T17:22:49;5.60;99.90
46900;DHT22;32647;49.382;7.078;2022-11-20T17:25:35;5.50;99.90
46900;DHT22;32647;49.382;7.078;2022-11-20T17:28:20;5.50;99.90
46900;DHT22;32647;49.382;7.078;2022-11-20T17:31:09;5.50;99.90
46900;DHT22;32647;49.382;7.078;2022-11-20T17:33:57;5.50;99.90
46900;DHT22;32647;49.382;7.078;2022-11-20T17:36:45;5.50;99.90
46900;DHT22;32647;49.382;7.078;2022-11-20T17:39:31;5.50;99.90
46900;DHT22;32647;49.382;7.078;2022-11-20T17:42:17;5.40;99.90
46900;DHT22;32647;49.382;7.078;2022-11-20T17:45:14;5.50;99.90
46900;DHT22;32647;49.382;7.078;2022-11-20T17:48:00;5.60;99.90
46900;DHT22;32647;49.382;7.078;2022-11-20T17:50:46;5.50;99.90
46900;DHT22;32647;49.382;7.078;2022-11-20T17:53:34;5.50;99.90
46900;DHT22;32647;49.382;7.078;2022-11-20T17:56:20;5.60;99.90
46900;DHT22;32647;49.382;7.078;2022-11-20T17:59:24;5.60;99.90
46900;DHT22;32647;49.382;7.078;2022-11-20T18:02:10;5.60;99.90
46900;DHT22;32647;49.382;7.078;2022-11-20T18:04:56;5.60;99.90
46900;DHT22;32647;49.382;7.078;2022-11-20T18:07:42;5.60;99.90
46900;DHT22;32647;49.382;7.078;2022-11-20T18:10:30;5.70;99.90
46900;DHT22;32647;49.382;7.078;2022-11-20T18:13:16;5.70;99.90
46900;DHT22;32647;49.382;7.078;2022-11-20T18:16:08;5.60;99.90
46900;DHT22;32647;49.382;7.078;2022-11-20T18:18:57;5.60;99.90
46900;DHT22;32647;49.382;7.078;2022-11-20T18:21:43;5.60;99.90
46900;DHT22;32647;49.382;7.078;2022-11-20T18:24:30;5.60;99.90
46900;DHT22;32647;49.382;7.078;2022-11-20T18:27:19;5.70;99.90
46900;DHT22;32647;49.382;7.078;2022-11-20T18:30:05;5.70;99.90
46900;DHT22;32647;49.382;7.078;2022-11-20T18:32:51;5.70;99.90
46900;DHT22;32647;49.382;7.078;2022-11-20T18:35:37;5.70;99.90
46900;DHT22;32647;49.382;7.078;2022-11-20T18:38:27;5.80;99.90
46900;DHT22;32647;49.382;7.078;2022-11-20T18:41:15;5.80;99.90
46900;DHT22;32647;49.382;7.078;2022-11-20T18:44:31;5.80;99.90
46900;DHT22;32647;49.382;7.078;2022-11-20T18:47:36;5.80;99.90
46900;DHT22;32647;49.382;7.078;2022-11-20T18:50:23;5.80;99.90
46900;DHT22;32647;49.382;7.078;2022-11-20T18:53:09;5.80;99.90
46900;DHT22;32647;49.382;7.078;2022-11-20T18:55:55;5.80;99.90
46900;DHT22;32647;49.382;7.078;2022-11-20T18:58:41;5.80;99.90
46900;DHT22;32647;49.382;7.078;2022-11-20T19:01:27;5.90;99.90
46900;DHT22;32647;49.382;7.078;2022-11-20T19:04:15;5.90;99.90
46900;DHT22;32647;49.382;7.078;2022-11-20T19:07:01;5.90;99.90
46900;DHT22;32647;49.382;7.078;2022-11-20T19:09:49;5.90;99.90
46900;DHT22;32647;49.382;7.078;2022-11-20T19:12:37;5.90;99.90
46900;DHT22;32647;49.382;7.078;2022-11-20T19:15:23;6.00;99.90
46900;DHT22;32647;49.382;7.078;2022-11-20T19:18:08;6.00;99.90
46900;DHT22;32647;49.382;7.078;2022-11-20T19:20:55;6.00;99.90
46900;DHT22;32647;49.382;7.078;2022-11-20T19:23:41;6.00;99.90